sensor_id;sensor_type;location;lat;lon;timestamp;temperature;humidity
14771;DHT22;7477;45.222;5.688;2023-06-14T00:02:02;19.20;99.90
14771;DHT22;7477;45.222;5.688;2023-06-14T00:05:21;19.20;99.90
14771;DHT22;7477;45.222;5.688;2023-06-14T00:08:42;19.20;99.90
14771;DHT22;7477;45.222;5.688;2023-06-14T00:12:01;19.20;99.90
14771;DHT22;7477;45.222;5.688;2023-06-14T00:15:21;19.20;99.90
14771;DHT22;7477;45.222;5.688;2023-06-14T00:18:42;19.20;99.90
14771;DHT22;7477;45.222;5.688;2023-06-14T00:22:01;19.10;99.90
14771;DHT22;7477;45.222;5.688;2023-06-14T00:25:24;19.10;99.90
14771;DHT22;7477;45.222;5.688;2023-06-14T00:28:47;19.00;99.90
14771;DHT22;7477;45.222;5.688;2023-06-14T00:32:06;19.00;99.90
14771;DHT22;7477;45.222;5.688;2023-06-14T00:35:26;19.00;99.90
14771;DHT22;7477;45.222;5.688;2023-06-14T00:38:46;19.00;99.90
14771;DHT22;7477;45.222;5.688;2023-06-14T00:42:05;19.00;99.90
14771;DHT22;7477;45.222;5.688;2023-06-14T00:45:25;18.90;99.90
14771;DHT22;7477;45.222;5.688;2023-06-14T00:48:44;18.90;99.90
14771;DHT22;7477;45.222;5.688;2023-06-14T00:52:04;18.90;99.90
14771;DHT22;7477;45.222;5.688;2023-06-14T00:55:25;18.90;99.90
14771;DHT22;7477;45.222;5.688;2023-06-14T00:58:45;19.00;99.90
14771;DHT22;7477;45.222;5.688;2023-06-14T01:02:04;18.90;99.90
14771;DHT22;7477;45.222;5.688;2023-06-14T01:05:24;18.90;99.90
14771;DHT22;7477;45.222;5.688;2023-06-14T01:08:51;18.90;99.90
14771;DHT22;7477;45.222;5.688;2023-06-14T01:12:36;18.80;99.90
14771;DHT22;7477;45.222;5.688;2023-06-14T01:15:57;18.80;99.90
14771;DHT22;7477;45.222;5.688;2023-06-14T01:19:18;18.80;99.90
14771;DHT22;7477;45.222;5.688;2023-06-14T01:22:55;18.70;99.90
14771;DHT22;7477;45.222;5.688;2023-06-14T01:26:14;18.80;99.90
14771;DHT22;7477;45.222;5.688;2023-06-14T01:29:35;18.70;99.90
14771;DHT22;7477;45.222;5.688;2023-06-14T01:32:55;18.70;99.90
14771;DHT22;7477;45.222;5.688;2023-06-14T01:36:17;18.70;99.90
14771;DHT22;7477;45.222;5.688;2023-06-14T01:39:37;18.60;99.90
14771;DHT22;7477;45.222;5.688;2023-06-14T01:42:57;18.70;99.90
14771;DHT22;7477;45.222;5.688;2023-06-14T01:46:17;18.60;99.90
14771;DHT22;7477;45.222;5.688;2023-06-14T01:49:38;18.60;99.90
14771;DHT22;7477;45.222;5.688;2023-06-14T01:52:58;18.60;99.90
14771;DHT22;7477;45.222;5.688;2023-06-14T01:56:17;18.60;99.90
14771;DHT22;7477;45.222;5.688;2023-06-14T01:59:36;18.50;99.90
14771;DHT22;7477;45.222;5.688;2023-06-14T02:02:55;18.50;99.90
14771;DHT22;7477;45.222;5.688;2023-06-14T02:06:15;18.50;99.90
14771;DHT22;7477;45.222;5.688;2023-06-14T02:09:37;18.50;99.90
14771;DHT22;7477;45.222;5.688;2023-06-14T02:12:56;18.50;99.90
14771;DHT22;7477;45.222;5.688;2023-06-14T02:16:15;18.50;99.90
14771;DHT22;7477;45.222;5.688;2023-06-14T02:19:36;18.50;99.90
14771;DHT22;7477;45.222;5.688;2023-06-14T02:22:55;18.50;99.90
14771;DHT22;7477;45.222;5.688;2023-06-14T02:26:15;18.50;99.90
14771;DHT22;7477;45.222;5.688;2023-06-14T02:29:34;18.60;99.90
14771;DHT22;7477;45.222;5.688;2023-06-14T02:32:54;18.60;99.90
14771;DHT22;7477;45.222;5.688;2023-06-14T02:36:13;18.60;99.90
14771;DHT22;7477;45.222;5.688;2023-06-14T02:39:32;18.60;99.90
14771;DHT22;7477;45.222;5.688;2023-06-14T02:42:51;18.60;99.90
14771;DHT22;7477;45.222;5.688;2023-06-14T02:46:10;18.60;99.90
14771;DHT22;7477;45.222;5.688;2023-06-14T02:49:30;18.60;99.90
14771;DHT22;7477;45.222;5.688;2023-06-14T02:52:49;18.50;99.90
14771;DHT22;7477;45.222;5.688;2023-06-14T02:56:09;18.50;99.90
14771;DHT22;7477;45.222;5.688;2023-06-14T02:59:28;18.50;99.90
14771;DHT22;7477;45.222;5.688;2023-06-14T03:02:47;18.50;99.90
14771;DHT22;7477;45.222;5.688;2023-06-14T03:06:07;18.50;99.90
14771;DHT22;7477;45.222;5.688;2023-06-14T03:09:26;18.50;99.90
14771;DHT22;7477;45.222;5.688;2023-06-14T03:12:47;18.50;99.90
14771;DHT22;7477;45.222;5.688;2023-06-14T03:16:06;18.50;99.90
14771;DHT22;7477;45.222;5.688;2023-06-14T03:19:26;18.40;99.90
14771;DHT22;7477;45.222;5.688;2023-06-14T03:22:45;18.40;99.90
14771;DHT22;7477;45.222;5.688;2023-06-14T03:26:05;18.50;99.90
14771;DHT22;7477;45.222;5.688;2023-06-14T03:29:24;18.40;99.90
14771;DHT22;7477;45.222;5.688;2023-06-14T03:32:44;18.50;99.90
14771;DHT22;7477;45.222;5.688;2023-06-14T03:36:03;18.40;99.90
14771;DHT22;7477;45.222;5.688;2023-06-14T03:39:23;18.40;99.90
14771;DHT22;7477;45.222;5.688;2023-06-14T03:42:42;18.40;99.90
14771;DHT22;7477;45.222;5.688;2023-06-14T03:46:01;18.40;99.90
14771;DHT22;7477;45.222;5.688;2023-06-14T03:49:20;18.40;99.90
14771;DHT22;7477;45.222;5.688;2023-06-14T03:52:40;18.40;99.90
14771;DHT22;7477;45.222;5.688;2023-06-14T03:56:01;18.40;99.90
14771;DHT22;7477;45.222;5.688;2023-06-14T03:59:20;18.40;99.90
14771;DHT22;7477;45.222;5.688;2023-06-14T04:02:40;18.30;99.90
14771;DHT22;7477;45.222;5.688;2023-06-14T04:06:00;18.30;99.90
14771;DHT22;7477;45.222;5.688;2023-06-14T04:09:19;18.30;99.90
14771;DHT22;7477;45.222;5.688;2023-06-14T04:12:39;18.40;99.90
14771;DHT22;7477;45.222;5.688;2023-06-14T04:15:58;18.30;99.90
14771;DHT22;7477;45.222;5.688;2023-06-14T04:19:17;18.30;99.90
14771;DHT22;7477;45.222;5.688;2023-06-14T04:22:36;18.30;99.90
14771;DHT22;7477;45.222;5.688;2023-06-14T04:25:56;18.30;99.90
14771;DHT22;7477;45.222;5.688;2023-06-14T04:29:21;18.40;99.90
14771;DHT22;7477;45.222;5.688;2023-06-14T04:32:40;18.40;99.90
14771;DHT22;7477;45.222;5.688;2023-06-14T04:36:01;18.40;99.90
14771;DHT22;7477;45.222;5.688;2023-06-14T04:39:20;18.40;99.90
14771;DHT22;7477;45.222;5.688;2023-06-14T04:42:40;18.40;99.90
14771;DHT22;7477;45.222;5.688;2023-06-14T04:45:59;18.40;99.90
14771;DHT22;7477;45.222;5.688;2023-06-14T04:49:20;18.40;99.90
14771;DHT22;7477;45.222;5.688;2023-06-14T04:52:42;18.50;99.90
14771;DHT22;7477;45.222;5.688;2023-06-14T04:56:02;18.50;99.90
14771;DHT22;7477;45.222;5.688;2023-06-14T04:59:22;18.50;99.90
14771;DHT22;7477;45.222;5.688;2023-06-14T05:02:42;18.50;99.90
14771;DHT22;7477;45.222;5.688;2023-06-14T05:06:01;18.50;99.90
14771;DHT22;7477;45.222;5.688;2023-06-14T05:09:20;18.50;99.90
14771;DHT22;7477;45.222;5.688;2023-06-14T05:12:39;18.50;99.90
14771;DHT22;7477;45.222;5.688;2023-06-14T05:15:59;18.40;99.90
14771;DHT22;7477;45.222;5.688;2023-06-14T05:19:19;18.50;99.90
14771;DHT22;7477;45.222;5.688;2023-06-14T05:22:39;18.50;99.90
14771;DHT22;7477;45.222;5.688;2023-06-14T05:25:58;18.50;99.90
14771;DHT22;7477;45.222;5.688;2023-06-14T05:29:18;18.50;99.90
14771;DHT22;7477;45.222;5.688;2023-06-14T05:32:37;18.50;99.90
14771;DHT22;7477;45.222;5.688;2023-06-14T05:35:57;18.50;99.90
14771;DHT22;7477;45.222;5.688;2023-06-14T05:39:16;18.50;99.90
14771;DHT22;7477;45.222;5.688;2023-06-14T05:42:35;18.60;99.90
14771;DHT22;7477;45.222;5.688;2023-06-14T05:45:55;18.50;99.90
14771;DHT22;7477;45.222;5.688;2023-06-14T05:49:14;18.60;99.90
14771;DHT22;7477;45.222;5.688;2023-06-14T05:52:34;18.60;99.90
14771;DHT22;7477;45.222;5.688;2023-06-14T05:55:54;18.60;99.90
14771;DHT22;7477;45.222;5.688;2023-06-14T05:59:14;18.60;99.90
14771;DHT22;7477;45.222;5.688;2023-06-14T06:02:33;18.60;99.90
14771;DHT22;7477;45.222;5.688;2023-06-14T06:05:52;18.60;99.90
14771;DHT22;7477;45.222;5.688;2023-06-14T06:09:11;18.60;99.90
14771;DHT22;7477;45.222;5.688;2023-06-14T06:12:31;18.70;99.90
14771;DHT22;7477;45.222;5.688;2023-06-14T06:15:51;18.70;99.90
14771;DHT22;7477;45.222;5.688;2023-06-14T06:19:11;18.70;99.90
14771;DHT22;7477;45.222;5.688;2023-06-14T06:22:30;18.70;99.90
14771;DHT22;7477;45.222;5.688;2023-06-14T06:25:49;18.80;99.90
14771;DHT22;7477;45.222;5.688;2023-06-14T06:29:08;18.80;99.90
14771;DHT22;7477;45.222;5.688;2023-06-14T06:32:27;18.80;99.90
14771;DHT22;7477;45.222;5.688;2023-06-14T06:35:46;18.80;99.90
14771;DHT22;7477;45.222;5.688;2023-06-14T06:39:05;18.80;99.90
14771;DHT22;7477;45.222;5.688;2023-06-14T06:42:29;18.80;99.90
14771;DHT22;7477;45.222;5.688;2023-06-14T06:45:48;18.90;99.90
14771;DHT22;7477;45.222;5.688;2023-06-14T06:49:07;18.90;99.90
14771;DHT22;7477;45.222;5.688;2023-06-14T06:52:27;19.00;99.90
14771;DHT22;7477;45.222;5.688;2023-06-14T06:55:46;19.10;99.90
14771;DHT22;7477;45.222;5.688;2023-06-14T06:59:05;19.10;99.90
14771;DHT22;7477;45.222;5.688;2023-06-14T07:02:25;19.20;99.90
14771;DHT22;7477;45.222;5.688;2023-06-14T07:05:44;19.20;99.90
14771;DHT22;7477;45.222;5.688;2023-06-14T07:09:04;19.30;99.90
14771;DHT22;7477;45.222;5.688;2023-06-14T07:12:26;19.20;99.90
14771;DHT22;7477;45.222;5.688;2023-06-14T07:15:46;19.30;99.90
14771;DHT22;7477;45.222;5.688;2023-06-14T07:19:05;19.30;99.90
14771;DHT22;7477;45.222;5.688;2023-06-14T07:22:24;19.50;99.90
14771;DHT22;7477;45.222;5.688;2023-06-14T07:25:45;19.60;99.90
14771;DHT22;7477;45.222;5.688;2023-06-14T07:29:04;19.70;99.90
14771;DHT22;7477;45.222;5.688;2023-06-14T07:32:24;19.70;99.90
14771;DHT22;7477;45.222;5.688;2023-06-14T07:35:43;19.60;99.90
14771;DHT22;7477;45.222;5.688;2023-06-14T07:39:04;19.60;99.90
14771;DHT22;7477;45.222;5.688;2023-06-14T07:42:25;19.50;99.90
14771;DHT22;7477;45.222;5.688;2023-06-14T07:45:44;19.60;99.90
14771;DHT22;7477;45.222;5.688;2023-06-14T07:49:04;19.60;99.90
14771;DHT22;7477;45.222;5.688;2023-06-14T07:52:24;19.60;99.90
14771;DHT22;7477;45.222;5.688;2023-06-14T07:55:43;19.60;99.90
14771;DHT22;7477;45.222;5.688;2023-06-14T07:59:02;19.70;99.90
14771;DHT22;7477;45.222;5.688;2023-06-14T08:02:21;19.70;99.90
14771;DHT22;7477;45.222;5.688;2023-06-14T08:05:41;19.70;99.90
14771;DHT22;7477;45.222;5.688;2023-06-14T08:09:00;19.80;99.90
14771;DHT22;7477;45.222;5.688;2023-06-14T08:12:19;19.90;99.90
14771;DHT22;7477;45.222;5.688;2023-06-14T08:15:38;20.00;99.90
14771;DHT22;7477;45.222;5.688;2023-06-14T08:18:58;20.10;99.90
14771;DHT22;7477;45.222;5.688;2023-06-14T08:22:17;20.10;99.90
14771;DHT22;7477;45.222;5.688;2023-06-14T08:25:37;20.10;99.90
14771;DHT22;7477;45.222;5.688;2023-06-14T08:28:56;20.20;99.90
14771;DHT22;7477;45.222;5.688;2023-06-14T08:32:15;20.20;99.90
14771;DHT22;7477;45.222;5.688;2023-06-14T08:35:34;20.30;99.90
14771;DHT22;7477;45.222;5.688;2023-06-14T08:38:55;20.30;99.90
14771;DHT22;7477;45.222;5.688;2023-06-14T08:42:15;20.30;99.90
14771;DHT22;7477;45.222;5.688;2023-06-14T08:45:36;20.20;99.90
14771;DHT22;7477;45.222;5.688;2023-06-14T08:48:56;20.30;99.90
14771;DHT22;7477;45.222;5.688;2023-06-14T08:52:19;20.20;99.90
14771;DHT22;7477;45.222;5.688;2023-06-14T08:55:40;20.20;99.90
14771;DHT22;7477;45.222;5.688;2023-06-14T08:59:00;20.20;99.90
14771;DHT22;7477;45.222;5.688;2023-06-14T09:02:22;20.20;99.90
14771;DHT22;7477;45.222;5.688;2023-06-14T09:05:44;20.30;99.90
14771;DHT22;7477;45.222;5.688;2023-06-14T09:09:05;20.30;99.90
14771;DHT22;7477;45.222;5.688;2023-06-14T09:12:24;20.30;99.90
14771;DHT22;7477;45.222;5.688;2023-06-14T09:15:43;20.30;99.90
14771;DHT22;7477;45.222;5.688;2023-06-14T09:19:03;20.30;99.90
14771;DHT22;7477;45.222;5.688;2023-06-14T09:22:22;20.30;99.90
14771;DHT22;7477;45.222;5.688;2023-06-14T09:25:46;20.40;99.90
14771;DHT22;7477;45.222;5.688;2023-06-14T09:29:05;20.40;99.90
14771;DHT22;7477;45.222;5.688;2023-06-14T09:32:25;20.40;99.90
14771;DHT22;7477;45.222;5.688;2023-06-14T09:35:51;20.40;99.90
14771;DHT22;7477;45.222;5.688;2023-06-14T09:39:11;20.40;99.90
14771;DHT22;7477;45.222;5.688;2023-06-14T09:42:36;20.50;99.90
14771;DHT22;7477;45.222;5.688;2023-06-14T09:45:56;20.50;99.90
14771;DHT22;7477;45.222;5.688;2023-06-14T09:49:16;20.60;99.90
14771;DHT22;7477;45.222;5.688;2023-06-14T09:52:35;20.60;99.90
14771;DHT22;7477;45.222;5.688;2023-06-14T09:55:54;20.60;99.90
14771;DHT22;7477;45.222;5.688;2023-06-14T09:59:19;20.60;99.90
14771;DHT22;7477;45.222;5.688;2023-06-14T10:02:49;20.80;99.90
14771;DHT22;7477;45.222;5.688;2023-06-14T10:06:11;20.70;99.90
14771;DHT22;7477;45.222;5.688;2023-06-14T10:09:31;20.70;99.90
14771;DHT22;7477;45.222;5.688;2023-06-14T10:12:52;20.60;99.90
14771;DHT22;7477;45.222;5.688;2023-06-14T10:16:27;20.60;99.90
14771;DHT22;7477;45.222;5.688;2023-06-14T10:19:58;20.70;99.90
14771;DHT22;7477;45.222;5.688;2023-06-14T10:23:23;20.70;99.90
14771;DHT22;7477;45.222;5.688;2023-06-14T10:26:58;20.80;99.90
14771;DHT22;7477;45.222;5.688;2023-06-14T10:30:25;20.90;99.90
14771;DHT22;7477;45.222;5.688;2023-06-14T10:33:56;20.90;99.90
14771;DHT22;7477;45.222;5.688;2023-06-14T10:37:16;21.00;99.90
14771;DHT22;7477;45.222;5.688;2023-06-14T10:40:36;21.00;99.90
14771;DHT22;7477;45.222;5.688;2023-06-14T10:47:35;21.20;99.90
14771;DHT22;7477;45.222;5.688;2023-06-14T10:51:02;21.20;99.90
14771;DHT22;7477;45.222;5.688;2023-06-14T10:54:22;21.30;99.90
14771;DHT22;7477;45.222;5.688;2023-06-14T11:01:05;21.40;99.90
14771;DHT22;7477;45.222;5.688;2023-06-14T11:11:44;21.50;99.90
14771;DHT22;7477;45.222;5.688;2023-06-14T11:15:05;21.50;99.90
14771;DHT22;7477;45.222;5.688;2023-06-14T11:18:24;21.40;99.90
14771;DHT22;7477;45.222;5.688;2023-06-14T11:21:47;21.50;99.90
14771;DHT22;7477;45.222;5.688;2023-06-14T11:25:11;21.50;99.90
14771;DHT22;7477;45.222;5.688;2023-06-14T11:28:38;21.50;99.90
14771;DHT22;7477;45.222;5.688;2023-06-14T11:31:57;21.50;99.90
14771;DHT22;7477;45.222;5.688;2023-06-14T11:35:17;21.60;99.90
14771;DHT22;7477;45.222;5.688;2023-06-14T11:38:36;21.60;99.90
14771;DHT22;7477;45.222;5.688;2023-06-14T11:41:58;21.60;99.90
14771;DHT22;7477;45.222;5.688;2023-06-14T11:45:20;21.60;99.90
14771;DHT22;7477;45.222;5.688;2023-06-14T11:48:41;21.60;99.90
14771;DHT22;7477;45.222;5.688;2023-06-14T11:52:01;21.60;99.90
14771;DHT22;7477;45.222;5.688;2023-06-14T11:55:20;21.70;99.90
14771;DHT22;7477;45.222;5.688;2023-06-14T11:58:40;21.70;99.90
14771;DHT22;7477;45.222;5.688;2023-06-14T12:02:03;21.70;99.90
14771;DHT22;7477;45.222;5.688;2023-06-14T12:05:23;21.80;99.90
14771;DHT22;7477;45.222;5.688;2023-06-14T12:08:43;21.90;99.90
14771;DHT22;7477;45.222;5.688;2023-06-14T12:12:04;21.80;99.90
14771;DHT22;7477;45.222;5.688;2023-06-14T12:15:27;21.80;99.90
14771;DHT22;7477;45.222;5.688;2023-06-14T12:18:47;21.90;99.90
14771;DHT22;7477;45.222;5.688;2023-06-14T12:22:12;21.80;99.90
14771;DHT22;7477;45.222;5.688;2023-06-14T12:25:34;21.80;99.90
14771;DHT22;7477;45.222;5.688;2023-06-14T12:28:54;21.90;99.90
14771;DHT22;7477;45.222;5.688;2023-06-14T12:32:13;21.90;99.90
14771;DHT22;7477;45.222;5.688;2023-06-14T12:35:32;21.90;99.90
14771;DHT22;7477;45.222;5.688;2023-06-14T12:38:51;21.90;99.90
14771;DHT22;7477;45.222;5.688;2023-06-14T12:42:13;22.00;99.90
14771;DHT22;7477;45.222;5.688;2023-06-14T12:45:34;22.10;99.90
14771;DHT22;7477;45.222;5.688;2023-06-14T12:48:53;22.00;99.90
14771;DHT22;7477;45.222;5.688;2023-06-14T12:52:12;22.10;99.90
14771;DHT22;7477;45.222;5.688;2023-06-14T12:55:32;22.30;99.90
14771;DHT22;7477;45.222;5.688;2023-06-14T12:58:51;22.10;99.90
14771;DHT22;7477;45.222;5.688;2023-06-14T13:02:16;23.10;97.00
14771;DHT22;7477;45.222;5.688;2023-06-14T13:05:36;24.00;94.30
14771;DHT22;7477;45.222;5.688;2023-06-14T13:08:56;24.50;92.00
14771;DHT22;7477;45.222;5.688;2023-06-14T13:12:16;24.80;91.30
14771;DHT22;7477;45.222;5.688;2023-06-14T13:15:36;24.80;91.20
14771;DHT22;7477;45.222;5.688;2023-06-14T13:18:55;25.10;91.90
14771;DHT22;7477;45.222;5.688;2023-06-14T13:22:15;25.10;91.50
14771;DHT22;7477;45.222;5.688;2023-06-14T13:25:35;25.20;90.80
14771;DHT22;7477;45.222;5.688;2023-06-14T13:28:54;25.30;90.50
14771;DHT22;7477;45.222;5.688;2023-06-14T13:32:13;25.20;90.80
14771;DHT22;7477;45.222;5.688;2023-06-14T13:35:33;25.40;90.50
14771;DHT22;7477;45.222;5.688;2023-06-14T13:38:52;25.40;91.70
14771;DHT22;7477;45.222;5.688;2023-06-14T13:42:13;25.60;90.80
14771;DHT22;7477;45.222;5.688;2023-06-14T13:45:32;25.80;91.10
14771;DHT22;7477;45.222;5.688;2023-06-14T13:48:51;26.10;91.30
14771;DHT22;7477;45.222;5.688;2023-06-14T13:52:11;26.20;92.20
14771;DHT22;7477;45.222;5.688;2023-06-14T13:55:32;26.10;93.70
14771;DHT22;7477;45.222;5.688;2023-06-14T13:58:51;26.20;93.80
14771;DHT22;7477;45.222;5.688;2023-06-14T14:02:11;26.50;91.70
14771;DHT22;7477;45.222;5.688;2023-06-14T14:05:31;26.60;92.40
14771;DHT22;7477;45.222;5.688;2023-06-14T14:08:50;26.80;92.50
14771;DHT22;7477;45.222;5.688;2023-06-14T14:12:09;26.80;92.80
14771;DHT22;7477;45.222;5.688;2023-06-14T14:15:29;26.60;93.50
14771;DHT22;7477;45.222;5.688;2023-06-14T14:18:49;26.70;93.30
14771;DHT22;7477;45.222;5.688;2023-06-14T14:22:08;26.80;93.00
14771;DHT22;7477;45.222;5.688;2023-06-14T14:25:27;27.00;93.20
14771;DHT22;7477;45.222;5.688;2023-06-14T14:28:47;27.10;92.60
14771;DHT22;7477;45.222;5.688;2023-06-14T14:32:06;27.00;93.30
14771;DHT22;7477;45.222;5.688;2023-06-14T14:35:26;27.00;92.80
14771;DHT22;7477;45.222;5.688;2023-06-14T14:38:50;27.50;92.80
14771;DHT22;7477;45.222;5.688;2023-06-14T14:42:10;27.60;92.80
14771;DHT22;7477;45.222;5.688;2023-06-14T14:45:31;27.50;92.20
14771;DHT22;7477;45.222;5.688;2023-06-14T14:48:50;27.80;90.80
14771;DHT22;7477;45.222;5.688;2023-06-14T14:52:09;27.80;89.00
14771;DHT22;7477;45.222;5.688;2023-06-14T14:55:29;27.80;85.90
14771;DHT22;7477;45.222;5.688;2023-06-14T14:58:49;27.70;86.00
14771;DHT22;7477;45.222;5.688;2023-06-14T15:02:09;27.90;85.30
14771;DHT22;7477;45.222;5.688;2023-06-14T15:05:29;27.90;84.50
14771;DHT22;7477;45.222;5.688;2023-06-14T15:08:49;28.00;83.80
14771;DHT22;7477;45.222;5.688;2023-06-14T15:12:10;28.10;83.60
14771;DHT22;7477;45.222;5.688;2023-06-14T15:15:30;28.20;84.90
14771;DHT22;7477;45.222;5.688;2023-06-14T15:18:49;28.30;83.30
14771;DHT22;7477;45.222;5.688;2023-06-14T15:22:08;28.50;79.90
14771;DHT22;7477;45.222;5.688;2023-06-14T15:25:28;28.70;80.90
14771;DHT22;7477;45.222;5.688;2023-06-14T15:28:48;28.60;77.20
14771;DHT22;7477;45.222;5.688;2023-06-14T15:32:07;28.40;76.40
14771;DHT22;7477;45.222;5.688;2023-06-14T15:35:26;28.30;76.80
14771;DHT22;7477;45.222;5.688;2023-06-14T15:38:45;28.30;75.30
14771;DHT22;7477;45.222;5.688;2023-06-14T15:42:05;28.50;74.50
14771;DHT22;7477;45.222;5.688;2023-06-14T15:45:25;28.50;75.50
14771;DHT22;7477;45.222;5.688;2023-06-14T15:48:44;28.40;76.60
14771;DHT22;7477;45.222;5.688;2023-06-14T15:52:04;28.60;74.20
14771;DHT22;7477;45.222;5.688;2023-06-14T15:55:23;28.70;73.00
14771;DHT22;7477;45.222;5.688;2023-06-14T15:58:42;28.70;73.40
14771;DHT22;7477;45.222;5.688;2023-06-14T16:02:01;28.90;72.60
14771;DHT22;7477;45.222;5.688;2023-06-14T16:05:20;28.60;70.50
14771;DHT22;7477;45.222;5.688;2023-06-14T16:08:40;28.20;72.10
14771;DHT22;7477;45.222;5.688;2023-06-14T16:11:59;28.70;70.30
14771;DHT22;7477;45.222;5.688;2023-06-14T16:15:19;28.80;68.90
14771;DHT22;7477;45.222;5.688;2023-06-14T16:18:38;28.70;70.70
14771;DHT22;7477;45.222;5.688;2023-06-14T16:21:57;28.50;67.30
14771;DHT22;7477;45.222;5.688;2023-06-14T16:25:16;28.00;67.10
14771;DHT22;7477;45.222;5.688;2023-06-14T16:28:36;27.70;67.00
14771;DHT22;7477;45.222;5.688;2023-06-14T16:31:55;27.60;68.70
14771;DHT22;7477;45.222;5.688;2023-06-14T16:35:14;27.40;65.00
14771;DHT22;7477;45.222;5.688;2023-06-14T16:38:33;27.30;64.80
14771;DHT22;7477;45.222;5.688;2023-06-14T16:41:53;27.20;64.80
14771;DHT22;7477;45.222;5.688;2023-06-14T16:45:12;27.00;65.80
14771;DHT22;7477;45.222;5.688;2023-06-14T16:48:31;26.90;67.10
14771;DHT22;7477;45.222;5.688;2023-06-14T16:51:50;26.80;65.80
14771;DHT22;7477;45.222;5.688;2023-06-14T16:55:09;26.70;66.60
14771;DHT22;7477;45.222;5.688;2023-06-14T16:58:28;26.60;65.10
14771;DHT22;7477;45.222;5.688;2023-06-14T17:01:51;26.50;70.70
14771;DHT22;7477;45.222;5.688;2023-06-14T17:05:11;26.50;64.00
14771;DHT22;7477;45.222;5.688;2023-06-14T17:08:30;26.60;63.60
14771;DHT22;7477;45.222;5.688;2023-06-14T17:11:50;26.50;60.90
14771;DHT22;7477;45.222;5.688;2023-06-14T17:15:09;26.40;60.10
14771;DHT22;7477;45.222;5.688;2023-06-14T17:18:29;26.30;59.20
14771;DHT22;7477;45.222;5.688;2023-06-14T17:21:48;26.20;59.80
14771;DHT22;7477;45.222;5.688;2023-06-14T17:25:11;26.20;59.60
14771;DHT22;7477;45.222;5.688;2023-06-14T17:28:30;26.10;58.40
14771;DHT22;7477;45.222;5.688;2023-06-14T17:31:49;26.00;58.50
14771;DHT22;7477;45.222;5.688;2023-06-14T17:35:08;26.00;58.30
14771;DHT22;7477;45.222;5.688;2023-06-14T17:38:27;26.30;58.70
14771;DHT22;7477;45.222;5.688;2023-06-14T17:41:48;26.90;58.60
14771;DHT22;7477;45.222;5.688;2023-06-14T17:45:07;26.80;57.30
14771;DHT22;7477;45.222;5.688;2023-06-14T17:48:26;26.50;57.50
14771;DHT22;7477;45.222;5.688;2023-06-14T17:51:52;26.20;56.70
14771;DHT22;7477;45.222;5.688;2023-06-14T17:55:12;25.90;56.40
14771;DHT22;7477;45.222;5.688;2023-06-14T17:58:31;25.70;54.50
14771;DHT22;7477;45.222;5.688;2023-06-14T18:01:50;25.60;54.40
14771;DHT22;7477;45.222;5.688;2023-06-14T18:05:09;25.60;55.30
14771;DHT22;7477;45.222;5.688;2023-06-14T18:08:29;25.50;55.80
14771;DHT22;7477;45.222;5.688;2023-06-14T18:11:48;25.40;59.70
14771;DHT22;7477;45.222;5.688;2023-06-14T18:15:08;25.40;62.30
14771;DHT22;7477;45.222;5.688;2023-06-14T18:18:27;25.30;64.20
14771;DHT22;7477;45.222;5.688;2023-06-14T18:21:47;25.30;66.30
14771;DHT22;7477;45.222;5.688;2023-06-14T18:25:07;25.10;66.40
14771;DHT22;7477;45.222;5.688;2023-06-14T18:28:26;24.90;68.20
14771;DHT22;7477;45.222;5.688;2023-06-14T18:31:45;24.70;66.80
14771;DHT22;7477;45.222;5.688;2023-06-14T18:35:04;24.60;67.40
14771;DHT22;7477;45.222;5.688;2023-06-14T18:38:24;24.50;68.00
14771;DHT22;7477;45.222;5.688;2023-06-14T18:41:44;24.40;68.30
14771;DHT22;7477;45.222;5.688;2023-06-14T18:45:04;24.40;69.00
14771;DHT22;7477;45.222;5.688;2023-06-14T18:48:24;24.30;69.10
14771;DHT22;7477;45.222;5.688;2023-06-14T18:51:43;24.40;73.20
14771;DHT22;7477;45.222;5.688;2023-06-14T18:55:03;24.60;74.40
14771;DHT22;7477;45.222;5.688;2023-06-14T18:58:22;24.70;76.10
14771;DHT22;7477;45.222;5.688;2023-06-14T19:01:42;24.80;75.60
14771;DHT22;7477;45.222;5.688;2023-06-14T19:05:01;24.70;75.70
14771;DHT22;7477;45.222;5.688;2023-06-14T19:08:24;24.80;74.00
14771;DHT22;7477;45.222;5.688;2023-06-14T19:11:43;24.80;73.40
14771;DHT22;7477;45.222;5.688;2023-06-14T19:15:05;24.80;76.00
14771;DHT22;7477;45.222;5.688;2023-06-14T19:18:25;24.70;75.20
14771;DHT22;7477;45.222;5.688;2023-06-14T19:21:44;24.70;77.50
14771;DHT22;7477;45.222;5.688;2023-06-14T19:25:04;24.70;75.90
14771;DHT22;7477;45.222;5.688;2023-06-14T19:28:24;24.60;76.20
14771;DHT22;7477;45.222;5.688;2023-06-14T19:31:44;24.50;73.20
14771;DHT22;7477;45.222;5.688;2023-06-14T19:35:05;24.50;77.60
14771;DHT22;7477;45.222;5.688;2023-06-14T19:38:24;24.50;77.80
14771;DHT22;7477;45.222;5.688;2023-06-14T19:41:43;24.60;80.80
14771;DHT22;7477;45.222;5.688;2023-06-14T19:45:03;24.60;80.20
14771;DHT22;7477;45.222;5.688;2023-06-14T19:48:22;24.60;81.80
14771;DHT22;7477;45.222;5.688;2023-06-14T19:51:41;24.50;81.90
14771;DHT22;7477;45.222;5.688;2023-06-14T19:55:01;24.40;81.60
14771;DHT22;7477;45.222;5.688;2023-06-14T19:58:21;24.40;82.10
14771;DHT22;7477;45.222;5.688;2023-06-14T20:01:40;24.40;82.60
14771;DHT22;7477;45.222;5.688;2023-06-14T20:04:59;24.30;81.30
14771;DHT22;7477;45.222;5.688;2023-06-14T20:08:19;24.20;80.90
14771;DHT22;7477;45.222;5.688;2023-06-14T20:11:42;24.30;80.80
14771;DHT22;7477;45.222;5.688;2023-06-14T20:15:02;24.20;78.80
14771;DHT22;7477;45.222;5.688;2023-06-14T20:18:21;24.20;80.60
14771;DHT22;7477;45.222;5.688;2023-06-14T20:21:41;24.10;81.10
14771;DHT22;7477;45.222;5.688;2023-06-14T20:25:00;24.00;78.60
14771;DHT22;7477;45.222;5.688;2023-06-14T20:28:19;24.00;78.70
14771;DHT22;7477;45.222;5.688;2023-06-14T20:31:38;24.00;77.90
14771;DHT22;7477;45.222;5.688;2023-06-14T20:34:57;23.90;80.00
14771;DHT22;7477;45.222;5.688;2023-06-14T20:38:16;23.90;80.30
14771;DHT22;7477;45.222;5.688;2023-06-14T20:41:36;23.90;77.80
14771;DHT22;7477;45.222;5.688;2023-06-14T20:44:55;23.90;81.60
14771;DHT22;7477;45.222;5.688;2023-06-14T20:48:16;23.90;79.30
14771;DHT22;7477;45.222;5.688;2023-06-14T20:51:37;23.90;80.80
14771;DHT22;7477;45.222;5.688;2023-06-14T20:54:56;23.60;76.20
14771;DHT22;7477;45.222;5.688;2023-06-14T20:58:16;23.40;74.70
14771;DHT22;7477;45.222;5.688;2023-06-14T21:01:36;23.40;76.20
14771;DHT22;7477;45.222;5.688;2023-06-14T21:04:55;23.10;76.80
14771;DHT22;7477;45.222;5.688;2023-06-14T21:08:15;22.60;73.80
14771;DHT22;7477;45.222;5.688;2023-06-14T21:11:34;22.20;76.20
14771;DHT22;7477;45.222;5.688;2023-06-14T21:14:53;22.30;74.70
14771;DHT22;7477;45.222;5.688;2023-06-14T21:18:12;22.50;74.30
14771;DHT22;7477;45.222;5.688;2023-06-14T21:21:31;22.50;74.70
14771;DHT22;7477;45.222;5.688;2023-06-14T21:24:51;22.90;77.60
14771;DHT22;7477;45.222;5.688;2023-06-14T21:28:10;23.10;80.30
14771;DHT22;7477;45.222;5.688;2023-06-14T21:31:29;23.10;80.90
14771;DHT22;7477;45.222;5.688;2023-06-14T21:34:49;23.10;81.70
14771;DHT22;7477;45.222;5.688;2023-06-14T21:38:08;23.30;81.70